sensor_id;sensor_type;location;lat;lon;timestamp;pressure;altitude;pressure_sealevel;temperature;humidity
30516;BME280;17297;54.022;10.760;2024-03-07T00:00:10;102892.56;;;6.43;75.82
30516;BME280;17297;54.022;10.760;2024-03-07T00:02:44;102886.47;;;6.41;75.79
30516;BME280;17297;54.022;10.760;2024-03-07T00:05:13;102887.56;;;6.39;75.56
30516;BME280;17297;54.022;10.760;2024-03-07T00:07:38;102888.41;;;6.39;75.64
30516;BME280;17297;54.022;10.760;2024-03-07T00:10:04;102900.81;;;6.40;75.53
30516;BME280;17297;54.022;10.760;2024-03-07T00:12:33;102896.31;;;6.41;75.32
30516;BME280;17297;54.022;10.760;2024-03-07T00:14:58;102900.19;;;6.37;75.45
30516;BME280;17297;54.022;10.760;2024-03-07T00:17:24;102898.06;;;6.29;75.57
30516;BME280;17297;54.022;10.760;2024-03-07T00:19:49;102908.03;;;6.27;75.61
30516;BME280;17297;54.022;10.760;2024-03-07T00:22:14;102904.38;;;6.28;75.64
30516;BME280;17297;54.022;10.760;2024-03-07T00:24:40;102903.19;;;6.32;75.20
30516;BME280;17297;54.022;10.760;2024-03-07T00:27:06;102898.81;;;6.31;75.10
30516;BME280;17297;54.022;10.760;2024-03-07T00:29:32;102893.81;;;6.27;75.04
30516;BME280;17297;54.022;10.760;2024-03-07T00:32:01;102901.19;;;6.23;75.04
30516;BME280;17297;54.022;10.760;2024-03-07T00:34:26;102902.28;;;6.20;74.94
30516;BME280;17297;54.022;10.760;2024-03-07T00:36:51;102895.97;;;6.21;74.89
30516;BME280;17297;54.022;10.760;2024-03-07T00:39:17;102887.59;;;6.26;74.78
30516;BME280;17297;54.022;10.760;2024-03-07T00:41:44;102895.22;;;6.19;74.70
30516;BME280;17297;54.022;10.760;2024-03-07T00:44:10;102902.94;;;6.11;74.74
30516;BME280;17297;54.022;10.760;2024-03-07T00:46:36;102904.03;;;6.09;74.43
30516;BME280;17297;54.022;10.760;2024-03-07T00:49:02;102896.84;;;6.09;74.30
30516;BME280;17297;54.022;10.760;2024-03-07T00:51:27;102896.22;;;6.06;74.28
30516;BME280;17297;54.022;10.760;2024-03-07T00:53:53;102889.69;;;6.10;74.21
30516;BME280;17297;54.022;10.760;2024-03-07T00:56:19;102899.00;;;6.04;74.13
30516;BME280;17297;54.022;10.760;2024-03-07T00:58:44;102888.97;;;6.08;73.92
30516;BME280;17297;54.022;10.760;2024-03-07T01:01:09;102898.72;;;5.96;74.12
30516;BME280;17297;54.022;10.760;2024-03-07T01:03:36;102893.16;;;5.99;74.04
30516;BME280;17297;54.022;10.760;2024-03-07T01:06:02;102887.91;;;5.97;73.95
30516;BME280;17297;54.022;10.760;2024-03-07T01:08:28;102883.81;;;5.92;73.73
30516;BME280;17297;54.022;10.760;2024-03-07T01:10:53;102881.69;;;5.84;73.80
30516;BME280;17297;54.022;10.760;2024-03-07T01:13:19;102885.25;;;5.72;74.18
30516;BME280;17297;54.022;10.760;2024-03-07T01:15:47;102893.59;;;5.80;73.74
30516;BME280;17297;54.022;10.760;2024-03-07T01:18:14;102880.00;;;5.83;73.35
30516;BME280;17297;54.022;10.760;2024-03-07T01:20:39;102882.69;;;5.83;73.40
30516;BME280;17297;54.022;10.760;2024-03-07T01:23:04;102886.88;;;5.62;73.66
30516;BME280;17297;54.022;10.760;2024-03-07T01:25:29;102885.47;;;5.56;73.69
30516;BME280;17297;54.022;10.760;2024-03-07T01:27:59;102885.06;;;5.62;73.48
30516;BME280;17297;54.022;10.760;2024-03-07T01:30:24;102885.69;;;5.66;72.70
30516;BME280;17297;54.022;10.760;2024-03-07T01:32:53;102880.69;;;5.48;73.10
30516;BME280;17297;54.022;10.760;2024-03-07T01:35:21;102886.47;;;5.42;73.25
30516;BME280;17297;54.022;10.760;2024-03-07T01:37:46;102889.97;;;5.43;73.00
30516;BME280;17297;54.022;10.760;2024-03-07T01:40:12;102888.16;;;5.43;73.01
30516;BME280;17297;54.022;10.760;2024-03-07T01:42:39;102884.66;;;5.43;72.65
30516;BME280;17297;54.022;10.760;2024-03-07T01:45:05;102887.81;;;5.48;72.62
30516;BME280;17297;54.022;10.760;2024-03-07T01:47:30;102877.16;;;5.48;72.73
30516;BME280;17297;54.022;10.760;2024-03-07T01:49:56;102889.44;;;5.38;72.72
30516;BME280;17297;54.022;10.760;2024-03-07T01:52:21;102883.03;;;5.40;72.65
30516;BME280;17297;54.022;10.760;2024-03-07T01:54:47;102881.00;;;5.44;72.17
30516;BME280;17297;54.022;10.760;2024-03-07T01:57:15;102886.78;;;5.38;72.46
30516;BME280;17297;54.022;10.760;2024-03-07T01:59:43;102887.53;;;5.40;72.05
30516;BME280;17297;54.022;10.760;2024-03-07T02:02:09;102876.63;;;5.43;71.72
30516;BME280;17297;54.022;10.760;2024-03-07T02:04:34;102884.31;;;5.35;71.75
30516;BME280;17297;54.022;10.760;2024-03-07T02:07:00;102883.34;;;5.36;71.91
30516;BME280;17297;54.022;10.760;2024-03-07T02:09:25;102884.44;;;5.33;72.16
30516;BME280;17297;54.022;10.760;2024-03-07T02:11:51;102881.34;;;5.39;72.06
30516;BME280;17297;54.022;10.760;2024-03-07T02:14:16;102882.50;;;5.35;72.06
30516;BME280;17297;54.022;10.760;2024-03-07T02:16:42;102879.19;;;5.31;71.96
30516;BME280;17297;54.022;10.760;2024-03-07T02:19:07;102880.47;;;5.39;71.93
30516;BME280;17297;54.022;10.760;2024-03-07T02:21:35;102871.31;;;5.43;71.77
30516;BME280;17297;54.022;10.760;2024-03-07T02:24:01;102869.47;;;5.43;71.87
30516;BME280;17297;54.022;10.760;2024-03-07T02:26:26;102868.91;;;5.51;71.21
30516;BME280;17297;54.022;10.760;2024-03-07T02:28:53;102864.97;;;5.44;71.81
30516;BME280;17297;54.022;10.760;2024-03-07T02:31:18;102867.66;;;5.44;71.70
30516;BME280;17297;54.022;10.760;2024-03-07T02:33:45;102867.44;;;5.47;71.45
30516;BME280;17297;54.022;10.760;2024-03-07T02:36:11;102861.13;;;5.48;71.21
30516;BME280;17297;54.022;10.760;2024-03-07T02:38:37;102877.28;;;5.33;71.77
30516;BME280;17297;54.022;10.760;2024-03-07T02:41:02;102859.88;;;5.41;71.78
30516;BME280;17297;54.022;10.760;2024-03-07T02:43:28;102872.56;;;5.37;71.71
30516;BME280;17297;54.022;10.760;2024-03-07T02:45:53;102876.09;;;5.38;71.33
30516;BME280;17297;54.022;10.760;2024-03-07T02:48:19;102868.09;;;5.38;70.89
30516;BME280;17297;54.022;10.760;2024-03-07T02:50:45;102870.22;;;5.32;71.02
30516;BME280;17297;54.022;10.760;2024-03-07T02:53:10;102871.31;;;5.30;71.00
30516;BME280;17297;54.022;10.760;2024-03-07T02:55:36;102876.09;;;5.25;71.17
30516;BME280;17297;54.022;10.760;2024-03-07T02:58:01;102876.31;;;5.35;70.35
30516;BME280;17297;54.022;10.760;2024-03-07T03:00:27;102872.03;;;5.32;70.41
30516;BME280;17297;54.022;10.760;2024-03-07T03:02:52;102875.97;;;5.26;70.54
30516;BME280;17297;54.022;10.760;2024-03-07T03:05:18;102869.78;;;5.26;70.42
30516;BME280;17297;54.022;10.760;2024-03-07T03:07:44;102868.84;;;5.27;70.45
30516;BME280;17297;54.022;10.760;2024-03-07T03:10:20;102872.03;;;5.32;70.37
30516;BME280;17297;54.022;10.760;2024-03-07T03:12:48;102865.97;;;5.30;70.43
30516;BME280;17297;54.022;10.760;2024-03-07T03:15:13;102870.34;;;5.18;70.75
30516;BME280;17297;54.022;10.760;2024-03-07T03:17:40;102867.03;;;5.27;70.58
30516;BME280;17297;54.022;10.760;2024-03-07T03:20:06;102865.41;;;5.25;70.73
30516;BME280;17297;54.022;10.760;2024-03-07T03:22:40;102854.94;;;5.35;70.50
30516;BME280;17297;54.022;10.760;2024-03-07T03:25:06;102866.28;;;5.25;70.52
30516;BME280;17297;54.022;10.760;2024-03-07T03:27:32;102861.47;;;5.30;70.21
30516;BME280;17297;54.022;10.760;2024-03-07T03:29:57;102858.47;;;5.22;70.42
30516;BME280;17297;54.022;10.760;2024-03-07T03:32:25;102852.19;;;5.23;70.13
30516;BME280;17297;54.022;10.760;2024-03-07T03:34:50;102854.00;;;5.23;70.35
30516;BME280;17297;54.022;10.760;2024-03-07T03:37:17;102855.81;;;5.22;70.21
30516;BME280;17297;54.022;10.760;2024-03-07T03:39:42;102856.56;;;5.24;69.64
30516;BME280;17297;54.022;10.760;2024-03-07T03:42:08;102853.91;;;5.24;69.62
30516;BME280;17297;54.022;10.760;2024-03-07T03:44:33;102853.47;;;5.18;69.95
30516;BME280;17297;54.022;10.760;2024-03-07T03:46:59;102856.44;;;5.13;70.20
30516;BME280;17297;54.022;10.760;2024-03-07T03:49:29;102853.56;;;5.03;70.29
30516;BME280;17297;54.022;10.760;2024-03-07T03:51:54;102863.81;;;5.09;69.86
30516;BME280;17297;54.022;10.760;2024-03-07T03:54:19;102855.38;;;5.16;69.95
30516;BME280;17297;54.022;10.760;2024-03-07T03:56:45;102859.03;;;5.15;69.68
30516;BME280;17297;54.022;10.760;2024-03-07T03:59:10;102863.38;;;5.16;70.01
30516;BME280;17297;54.022;10.760;2024-03-07T04:01:35;102860.50;;;5.19;69.85
30516;BME280;17297;54.022;10.760;2024-03-07T04:04:01;102859.53;;;5.20;69.81
30516;BME280;17297;54.022;10.760;2024-03-07T04:06:26;102857.63;;;5.22;69.80
30516;BME280;17297;54.022;10.760;2024-03-07T04:08:52;102856.44;;;5.26;69.50
30516;BME280;17297;54.022;10.760;2024-03-07T04:11:17;102852.94;;;5.25;69.27
30516;BME280;17297;54.022;10.760;2024-03-07T04:13:45;102859.22;;;5.24;69.62
30516;BME280;17297;54.022;10.760;2024-03-07T04:16:10;102856.03;;;5.19;69.81
30516;BME280;17297;54.022;10.760;2024-03-07T04:18:36;102850.38;;;5.24;70.01
30516;BME280;17297;54.022;10.760;2024-03-07T04:21:01;102842.25;;;5.25;69.92
30516;BME280;17297;54.022;10.760;2024-03-07T04:23:27;102847.50;;;5.27;69.49
30516;BME280;17297;54.022;10.760;2024-03-07T04:25:53;102847.72;;;5.24;69.40
30516;BME280;17297;54.022;10.760;2024-03-07T04:28:19;102839.38;;;5.16;69.24
30516;BME280;17297;54.022;10.760;2024-03-07T04:30:45;102843.94;;;5.14;68.91
30516;BME280;17297;54.022;10.760;2024-03-07T04:33:11;102845.47;;;5.18;68.92
30516;BME280;17297;54.022;10.760;2024-03-07T04:35:36;102843.31;;;5.23;68.98
30516;BME280;17297;54.022;10.760;2024-03-07T04:38:02;102850.88;;;5.03;69.07
30516;BME280;17297;54.022;10.760;2024-03-07T04:40:28;102857.91;;;5.04;69.29
30516;BME280;17297;54.022;10.760;2024-03-07T04:42:53;102840.44;;;5.13;69.09
30516;BME280;17297;54.022;10.760;2024-03-07T04:45:19;102841.94;;;5.17;68.74
30516;BME280;17297;54.022;10.760;2024-03-07T04:47:45;102841.63;;;5.22;68.98
30516;BME280;17297;54.022;10.760;2024-03-07T04:50:11;102841.63;;;5.22;68.54
30516;BME280;17297;54.022;10.760;2024-03-07T04:52:38;102838.94;;;5.22;68.33
30516;BME280;17297;54.022;10.760;2024-03-07T04:55:08;102840.44;;;5.13;68.74
30516;BME280;17297;54.022;10.760;2024-03-07T04:57:37;102841.63;;;4.96;68.85
30516;BME280;17297;54.022;10.760;2024-03-07T05:00:09;102845.69;;;5.02;68.64
30516;BME280;17297;54.022;10.760;2024-03-07T05:02:45;102843.44;;;5.08;68.24
30516;BME280;17297;54.022;10.760;2024-03-07T05:05:11;102849.28;;;5.14;68.04
30516;BME280;17297;54.022;10.760;2024-03-07T05:07:37;102844.91;;;5.13;68.14
30516;BME280;17297;54.022;10.760;2024-03-07T05:10:07;102850.59;;;5.08;68.23
30516;BME280;17297;54.022;10.760;2024-03-07T05:12:33;102851.09;;;5.13;67.98
30516;BME280;17297;54.022;10.760;2024-03-07T05:14:58;102848.66;;;5.10;68.04
30516;BME280;17297;54.022;10.760;2024-03-07T05:17:24;102846.75;;;5.12;68.52
30516;BME280;17297;54.022;10.760;2024-03-07T05:19:49;102843.00;;;5.15;68.46
30516;BME280;17297;54.022;10.760;2024-03-07T05:22:15;102844.50;;;5.19;68.38
30516;BME280;17297;54.022;10.760;2024-03-07T05:24:44;102844.28;;;5.09;68.74
30516;BME280;17297;54.022;10.760;2024-03-07T05:27:10;102844.06;;;5.12;68.58
30516;BME280;17297;54.022;10.760;2024-03-07T05:29:37;102849.28;;;5.14;68.90
30516;BME280;17297;54.022;10.760;2024-03-07T05:32:26;102844.16;;;5.10;68.60
30516;BME280;17297;54.022;10.760;2024-03-07T05:34:52;102837.97;;;5.10;68.48
30516;BME280;17297;54.022;10.760;2024-03-07T05:37:20;102850.03;;;5.16;68.21
30516;BME280;17297;54.022;10.760;2024-03-07T05:39:49;102851.22;;;5.12;68.05
30516;BME280;17297;54.022;10.760;2024-03-07T05:42:15;102847.16;;;5.19;68.05
30516;BME280;17297;54.022;10.760;2024-03-07T05:44:46;102852.06;;;5.25;68.12
30516;BME280;17297;54.022;10.760;2024-03-07T05:47:12;102842.88;;;5.29;68.34
30516;BME280;17297;54.022;10.760;2024-03-07T05:49:41;102840.75;;;5.34;68.65
30516;BME280;17297;54.022;10.760;2024-03-07T05:52:06;102847.16;;;5.31;68.83
30516;BME280;17297;54.022;10.760;2024-03-07T05:54:32;102847.16;;;5.31;69.03
30516;BME280;17297;54.022;10.760;2024-03-07T05:56:58;102845.88;;;5.37;68.99
30516;BME280;17297;54.022;10.760;2024-03-07T05:59:23;102851.75;;;5.29;69.04
30516;BME280;17297;54.022;10.760;2024-03-07T06:01:49;102852.19;;;5.23;69.57
30516;BME280;17297;54.022;10.760;2024-03-07T06:04:16;102851.44;;;5.34;69.57
30516;BME280;17297;54.022;10.760;2024-03-07T06:06:41;102850.38;;;5.37;69.52
30516;BME280;17297;54.022;10.760;2024-03-07T06:09:08;102853.13;;;5.35;69.59
30516;BME280;17297;54.022;10.760;2024-03-07T06:11:37;102852.06;;;5.38;69.64
30516;BME280;17297;54.022;10.760;2024-03-07T06:14:03;102848.97;;;5.44;69.59
30516;BME280;17297;54.022;10.760;2024-03-07T06:16:30;102851.34;;;5.48;69.42
30516;BME280;17297;54.022;10.760;2024-03-07T06:19:01;102841.06;;;5.55;69.75
30516;BME280;17297;54.022;10.760;2024-03-07T06:21:27;102853.03;;;5.49;70.12
30516;BME280;17297;54.022;10.760;2024-03-07T06:23:56;102856.75;;;5.47;69.80
30516;BME280;17297;54.022;10.760;2024-03-07T06:26:42;102856.13;;;5.56;69.91
30516;BME280;17297;54.022;10.760;2024-03-07T06:29:12;102858.44;;;5.61;70.26
30516;BME280;17297;54.022;10.760;2024-03-07T06:31:38;102855.47;;;5.65;69.87
30516;BME280;17297;54.022;10.760;2024-03-07T06:34:03;102856.53;;;5.63;70.22
30516;BME280;17297;54.022;10.760;2024-03-07T06:36:29;102854.06;;;5.60;70.43
30516;BME280;17297;54.022;10.760;2024-03-07T06:38:54;102858.97;;;5.66;70.29
30516;BME280;17297;54.022;10.760;2024-03-07T06:41:20;102861.56;;;5.67;70.15
30516;BME280;17297;54.022;10.760;2024-03-07T06:43:46;102859.72;;;5.68;70.38
30516;BME280;17297;54.022;10.760;2024-03-07T06:46:11;102863.25;;;5.68;70.32
30516;BME280;17297;54.022;10.760;2024-03-07T06:48:38;102865.94;;;5.68;70.33
30516;BME280;17297;54.022;10.760;2024-03-07T06:51:05;102875.13;;;5.64;70.79
30516;BME280;17297;54.022;10.760;2024-03-07T06:53:30;102870.50;;;5.66;70.87
30516;BME280;17297;54.022;10.760;2024-03-07T06:55:56;102869.88;;;5.63;70.83
30516;BME280;17297;54.022;10.760;2024-03-07T06:58:21;102872.75;;;5.60;70.75
30516;BME280;17297;54.022;10.760;2024-03-07T07:00:50;102868.19;;;5.62;71.02
30516;BME280;17297;54.022;10.760;2024-03-07T07:03:23;102871.47;;;5.65;71.08
30516;BME280;17297;54.022;10.760;2024-03-07T07:05:49;102873.19;;;5.66;70.98
30516;BME280;17297;54.022;10.760;2024-03-07T07:08:15;102878.44;;;5.68;71.06
30516;BME280;17297;54.022;10.760;2024-03-07T07:10:41;102869.44;;;5.69;70.80
30516;BME280;17297;54.022;10.760;2024-03-07T07:13:10;102868.59;;;5.68;70.89
30516;BME280;17297;54.022;10.760;2024-03-07T07:15:36;102865.94;;;5.68;71.06
30516;BME280;17297;54.022;10.760;2024-03-07T07:18:05;102874.91;;;5.67;70.93
30516;BME280;17297;54.022;10.760;2024-03-07T07:20:33;102877.38;;;5.70;70.98
30516;BME280;17297;54.022;10.760;2024-03-07T07:23:02;102865.72;;;5.71;71.10
30516;BME280;17297;54.022;10.760;2024-03-07T07:25:31;102871.13;;;5.70;71.22
30516;BME280;17297;54.022;10.760;2024-03-07T07:27:56;102867.53;;;5.71;71.44
30516;BME280;17297;54.022;10.760;2024-03-07T07:30:23;102878.22;;;5.71;71.35
30516;BME280;17297;54.022;10.760;2024-03-07T07:32:50;102868.16;;;5.74;71.30
30516;BME280;17297;54.022;10.760;2024-03-07T07:35:15;102879.59;;;5.64;71.55
30516;BME280;17297;54.022;10.760;2024-03-07T07:37:46;102879.50;;;5.65;71.78
30516;BME280;17297;54.022;10.760;2024-03-07T07:40:16;102880.34;;;5.66;71.67
30516;BME280;17297;54.022;10.760;2024-03-07T07:42:49;102869.88;;;5.63;71.63
30516;BME280;17297;54.022;10.760;2024-03-07T07:45:17;102871.69;;;5.62;72.03
30516;BME280;17297;54.022;10.760;2024-03-07T07:47:50;102873.94;;;5.68;71.80
30516;BME280;17297;54.022;10.760;2024-03-07T07:50:18;102869.34;;;5.70;71.88
30516;BME280;17297;54.022;10.760;2024-03-07T07:52:48;102870.06;;;5.72;71.77
30516;BME280;17297;54.022;10.760;2024-03-07T07:55:16;102873.50;;;5.74;71.49
30516;BME280;17297;54.022;10.760;2024-03-07T07:57:48;102872.53;;;5.75;71.62
30516;BME280;17297;54.022;10.760;2024-03-07T08:00:15;102868.91;;;5.76;71.45
30516;BME280;17297;54.022;10.760;2024-03-07T08:03:08;102874.25;;;5.76;71.76
30516;BME280;17297;54.022;10.760;2024-03-07T08:05:35;102874.97;;;5.78;71.52
30516;BME280;17297;54.022;10.760;2024-03-07T08:08:03;102867.81;;;5.79;71.59
30516;BME280;17297;54.022;10.760;2024-03-07T08:10:30;102877.78;;;5.77;71.80
30516;BME280;17297;54.022;10.760;2024-03-07T08:12:57;102870.59;;;5.77;71.66
30516;BME280;17297;54.022;10.760;2024-03-07T08:15:24;102886.44;;;5.68;72.06
30516;BME280;17297;54.022;10.760;2024-03-07T08:17:49;102877.78;;;5.77;71.97
30516;BME280;17297;54.022;10.760;2024-03-07T08:20:18;102884.19;;;5.74;71.80
30516;BME280;17297;54.022;10.760;2024-03-07T08:22:49;102881.38;;;5.76;71.81
30516;BME280;17297;54.022;10.760;2024-03-07T08:25:19;102895.16;;;5.70;72.13
30516;BME280;17297;54.022;10.760;2024-03-07T08:27:46;102887.38;;;5.67;72.17
30516;BME280;17297;54.022;10.760;2024-03-07T08:30:12;102890.94;;;5.67;72.25
30516;BME280;17297;54.022;10.760;2024-03-07T08:32:41;102895.38;;;5.67;72.19
30516;BME280;17297;54.022;10.760;2024-03-07T08:35:08;102880.03;;;5.70;72.11
30516;BME280;17297;54.022;10.760;2024-03-07T08:37:41;102880.97;;;5.69;72.06
30516;BME280;17297;54.022;10.760;2024-03-07T08:40:08;102879.59;;;5.76;71.99
30516;BME280;17297;54.022;10.760;2024-03-07T08:42:35;102888.47;;;5.77;72.12
30516;BME280;17297;54.022;10.760;2024-03-07T08:45:02;102875.94;;;5.77;72.16
30516;BME280;17297;54.022;10.760;2024-03-07T08:47:34;102880.31;;;5.78;71.92
30516;BME280;17297;54.022;10.760;2024-03-07T08:50:01;102876.38;;;5.84;71.99
30516;BME280;17297;54.022;10.760;2024-03-07T08:52:27;102872.00;;;5.83;72.32
30516;BME280;17297;54.022;10.760;2024-03-07T08:54:53;102876.72;;;5.79;72.60
30516;BME280;17297;54.022;10.760;2024-03-07T08:57:19;102875.50;;;5.84;72.35
30516;BME280;17297;54.022;10.760;2024-03-07T08:59:46;102874.66;;;5.83;72.53
30516;BME280;17297;54.022;10.760;2024-03-07T09:02:11;102871.25;;;5.81;72.84
30516;BME280;17297;54.022;10.760;2024-03-07T09:04:37;102871.78;;;5.86;72.76
30516;BME280;17297;54.022;10.760;2024-03-07T09:07:03;102861.19;;;5.85;72.66
30516;BME280;17297;54.022;10.760;2024-03-07T09:09:29;102865.34;;;5.89;72.44
30516;BME280;17297;54.022;10.760;2024-03-07T09:11:54;102862.56;;;5.90;72.53
30516;BME280;17297;54.022;10.760;2024-03-07T09:14:19;102871.25;;;5.94;72.67
30516;BME280;17297;54.022;10.760;2024-03-07T09:16:45;102874.31;;;5.88;72.90
30516;BME280;17297;54.022;10.760;2024-03-07T09:19:14;102871.66;;;5.88;72.77
30516;BME280;17297;54.022;10.760;2024-03-07T09:21:40;102871.25;;;5.94;72.42
30516;BME280;17297;54.022;10.760;2024-03-07T09:24:08;102869.81;;;6.01;72.32
30516;BME280;17297;54.022;10.760;2024-03-07T09:26:33;102871.78;;;5.99;72.40
30516;BME280;17297;54.022;10.760;2024-03-07T09:29:01;102872.28;;;6.04;72.30
30516;BME280;17297;54.022;10.760;2024-03-07T09:31:31;102875.69;;;6.06;72.35
30516;BME280;17297;54.022;10.760;2024-03-07T09:33:57;102869.72;;;6.03;72.43
30516;BME280;17297;54.022;10.760;2024-03-07T09:36:24;102866.31;;;6.00;72.05
30516;BME280;17297;54.022;10.760;2024-03-07T09:38:49;102873.56;;;6.11;71.95
30516;BME280;17297;54.022;10.760;2024-03-07T09:41:15;102871.72;;;6.12;71.59
30516;BME280;17297;54.022;10.760;2024-03-07T09:43:43;102866.25;;;6.13;71.44
30516;BME280;17297;54.022;10.760;2024-03-07T09:46:09;102874.41;;;6.12;71.55
30516;BME280;17297;54.022;10.760;2024-03-07T09:48:35;102866.78;;;6.18;71.31
30516;BME280;17297;54.022;10.760;2024-03-07T09:51:02;102873.38;;;6.25;71.19
30516;BME280;17297;54.022;10.760;2024-03-07T09:53:30;102868.16;;;6.24;70.95
30516;BME280;17297;54.022;10.760;2024-03-07T09:55:55;102874.56;;;6.21;70.77
30516;BME280;17297;54.022;10.760;2024-03-07T09:58:24;102875.94;;;6.27;70.84
30516;BME280;17297;54.022;10.760;2024-03-07T10:00:51;102878.09;;;6.22;71.14
30516;BME280;17297;54.022;10.760;2024-03-07T10:03:20;102878.84;;;6.24;70.86
30516;BME280;17297;54.022;10.760;2024-03-07T10:05:47;102876.03;;;6.25;70.61
30516;BME280;17297;54.022;10.760;2024-03-07T10:08:12;102874.75;;;6.31;70.73
30516;BME280;17297;54.022;10.760;2024-03-07T10:10:39;102881.28;;;6.27;71.03
30516;BME280;17297;54.022;10.760;2024-03-07T10:13:04;102876.66;;;6.29;70.91
30516;BME280;17297;54.022;10.760;2024-03-07T10:15:32;102872.81;;;6.33;70.85
30516;BME280;17297;54.022;10.760;2024-03-07T10:17:58;102874.53;;;6.34;71.09
30516;BME280;17297;54.022;10.760;2024-03-07T10:20:25;102881.34;;;6.38;70.79
30516;BME280;17297;54.022;10.760;2024-03-07T10:22:50;102876.66;;;6.42;70.80
30516;BME280;17297;54.022;10.760;2024-03-07T10:25:22;102867.19;;;6.49;70.49
30516;BME280;17297;54.022;10.760;2024-03-07T10:27:50;102875.84;;;6.53;70.33
30516;BME280;17297;54.022;10.760;2024-03-07T10:30:16;102869.88;;;6.49;70.19
30516;BME280;17297;54.022;10.760;2024-03-07T10:32:46;102873.28;;;6.51;70.25
30516;BME280;17297;54.022;10.760;2024-03-07T10:35:12;102873.06;;;6.54;70.24
30516;BME280;17297;54.022;10.760;2024-03-07T10:37:40;102870.25;;;6.56;70.12
30516;BME280;17297;54.022;10.760;2024-03-07T10:40:06;102877.06;;;6.60;70.13
30516;BME280;17297;54.022;10.760;2024-03-07T10:42:45;102873.69;;;6.58;70.27
30516;BME280;17297;54.022;10.760;2024-03-07T10:45:12;102871.63;;;6.61;70.09
30516;BME280;17297;54.022;10.760;2024-03-07T10:47:43;102869.44;;;6.66;70.39
30516;BME280;17297;54.022;10.760;2024-03-07T10:50:20;102861.31;;;6.68;70.31
30516;BME280;17297;54.022;10.760;2024-03-07T10:52:58;102870.09;;;6.70;70.16
30516;BME280;17297;54.022;10.760;2024-03-07T10:56:22;102865.56;;;6.70;70.18
30516;BME280;17297;54.022;10.760;2024-03-07T10:58:34;102861.69;;;6.75;70.03
30516;BME280;17297;54.022;10.760;2024-03-07T11:01:04;102865.13;;;6.77;70.05
30516;BME280;17297;54.022;10.760;2024-03-07T11:03:35;102864.03;;;6.79;70.11
30516;BME280;17297;54.022;10.760;2024-03-07T11:06:01;102865.72;;;6.80;70.09
30516;BME280;17297;54.022;10.760;2024-03-07T11:08:32;102871.19;;;6.79;70.26
30516;BME280;17297;54.022;10.760;2024-03-07T11:11:00;102858.78;;;6.78;70.23
30516;BME280;17297;54.022;10.760;2024-03-07T11:13:26;102860.84;;;6.74;70.33
30516;BME280;17297;54.022;10.760;2024-03-07T11:15:53;102851.22;;;6.71;70.42
30516;BME280;17297;54.022;10.760;2024-03-07T11:18:23;102863.84;;;6.69;70.44
30516;BME280;17297;54.022;10.760;2024-03-07T11:20:49;102860.31;;;6.69;70.50
30516;BME280;17297;54.022;10.760;2024-03-07T11:23:28;102853.06;;;6.71;70.72
30516;BME280;17297;54.022;10.760;2024-03-07T11:26:07;102851.22;;;6.71;70.76
30516;BME280;17297;54.022;10.760;2024-03-07T11:28:39;102845.03;;;6.71;71.19
30516;BME280;17297;54.022;10.760;2024-03-07T11:31:16;102843.44;;;6.68;71.12
30516;BME280;17297;54.022;10.760;2024-03-07T11:34:15;102849.63;;;6.69;71.25
30516;BME280;17297;54.022;10.760;2024-03-07T11:36:45;102849.16;;;6.75;71.21
30516;BME280;17297;54.022;10.760;2024-03-07T11:39:40;102841.88;;;6.77;71.39
30516;BME280;17297;54.022;10.760;2024-03-07T11:42:09;102826.16;;;6.72;71.25
30516;BME280;17297;54.022;10.760;2024-03-07T11:44:34;102828.84;;;6.72;71.63
30516;BME280;17297;54.022;10.760;2024-03-07T11:47:01;102827.91;;;6.74;71.46
30516;BME280;17297;54.022;10.760;2024-03-07T11:49:34;102827.06;;;6.73;71.75
30516;BME280;17297;54.022;10.760;2024-03-07T11:52:01;102817.06;;;6.75;71.66
30516;BME280;17297;54.022;10.760;2024-03-07T11:54:30;102819.63;;;6.77;71.87
30516;BME280;17297;54.022;10.760;2024-03-07T11:56:57;102814.63;;;6.72;71.85
30516;BME280;17297;54.022;10.760;2024-03-07T11:59:23;102817.44;;;6.70;72.08
30516;BME280;17297;54.022;10.760;2024-03-07T12:01:49;102808.94;;;6.77;72.13
30516;BME280;17297;54.022;10.760;2024-03-07T12:04:14;102807.63;;;6.82;72.06
30516;BME280;17297;54.022;10.760;2024-03-07T12:06:50;102806.66;;;6.83;72.23
30516;BME280;17297;54.022;10.760;2024-03-07T12:09:16;102799.84;;;6.90;72.04
30516;BME280;17297;54.022;10.760;2024-03-07T12:11:50;102808.59;;;6.92;71.89
30516;BME280;17297;54.022;10.760;2024-03-07T12:14:19;102801.44;;;6.93;71.77
30516;BME280;17297;54.022;10.760;2024-03-07T12:16:46;102796.91;;;6.93;71.95
30516;BME280;17297;54.022;10.760;2024-03-07T12:19:12;102798.63;;;6.94;72.04
30516;BME280;17297;54.022;10.760;2024-03-07T12:21:38;102790.34;;;6.86;72.34
30516;BME280;17297;54.022;10.760;2024-03-07T12:24:14;102787.81;;;6.96;72.01
30516;BME280;17297;54.022;10.760;2024-03-07T12:26:40;102793.25;;;6.94;72.16
30516;BME280;17297;54.022;10.760;2024-03-07T12:29:11;102793.16;;;6.96;72.45
30516;BME280;17297;54.022;10.760;2024-03-07T12:31:41;102793.91;;;6.98;72.37
30516;BME280;17297;54.022;10.760;2024-03-07T12:34:07;102794.50;;;7.02;72.33
30516;BME280;17297;54.022;10.760;2024-03-07T12:36:37;102790.25;;;6.99;72.47
30516;BME280;17297;54.022;10.760;2024-03-07T12:39:24;102785.97;;;6.97;72.79
30516;BME280;17297;54.022;10.760;2024-03-07T12:41:51;102793.16;;;6.96;72.85
30516;BME280;17297;54.022;10.760;2024-03-07T12:44:19;102785.56;;;6.79;73.33
30516;BME280;17297;54.022;10.760;2024-03-07T12:46:48;102778.19;;;6.82;73.30
30516;BME280;17297;54.022;10.760;2024-03-07T12:49:14;102776.97;;;6.86;73.59
30516;BME280;17297;54.022;10.760;2024-03-07T12:51:41;102778.19;;;6.82;73.71